sensor_id;sensor_type;location;lat;lon;timestamp;P1;durP1;ratioP1;P2;durP2;ratioP2
71298;SDS011;59083;47.974;21.722;2023-02-20T00:02:36;8.43;;;2.67;;
71298;SDS011;59083;47.974;21.722;2023-02-20T00:05:37;8.00;;;2.77;;
71298;SDS011;59083;47.974;21.722;2023-02-20T00:08:38;7.40;;;2.70;;
71298;SDS011;59083;47.974;21.722;2023-02-20T00:11:41;9.73;;;2.53;;
71298;SDS011;59083;47.974;21.722;2023-02-20T00:14:42;7.45;;;2.72;;
71298;SDS011;59083;47.974;21.722;2023-02-20T00:17:44;7.93;;;2.60;;
71298;SDS011;59083;47.974;21.722;2023-02-20T00:20:48;8.93;;;3.00;;
71298;SDS011;59083;47.974;21.722;2023-02-20T00:23:50;7.65;;;2.72;;
71298;SDS011;59083;47.974;21.722;2023-02-20T00:26:52;8.73;;;3.05;;
71298;SDS011;59083;47.974;21.722;2023-02-20T00:29:53;7.30;;;2.92;;
71298;SDS011;59083;47.974;21.722;2023-02-20T00:32:54;9.07;;;2.90;;
71298;SDS011;59083;47.974;21.722;2023-02-20T00:35:57;9.17;;;2.60;;
71298;SDS011;59083;47.974;21.722;2023-02-20T00:38:58;11.57;;;3.47;;
71298;SDS011;59083;47.974;21.722;2023-02-20T00:42:00;9.25;;;3.30;;
71298;SDS011;59083;47.974;21.722;2023-02-20T00:45:02;8.82;;;3.40;;
71298;SDS011;59083;47.974;21.722;2023-02-20T00:48:04;10.43;;;3.40;;
71298;SDS011;59083;47.974;21.722;2023-02-20T00:51:05;13.23;;;3.50;;
71298;SDS011;59083;47.974;21.722;2023-02-20T00:54:07;9.48;;;3.67;;
71298;SDS011;59083;47.974;21.722;2023-02-20T00:57:08;12.48;;;3.45;;
71298;SDS011;59083;47.974;21.722;2023-02-20T01:00:11;8.57;;;3.50;;
71298;SDS011;59083;47.974;21.722;2023-02-20T01:03:18;9.57;;;4.00;;
71298;SDS011;59083;47.974;21.722;2023-02-20T01:06:19;10.70;;;3.37;;
71298;SDS011;59083;47.974;21.722;2023-02-20T01:09:21;10.73;;;3.85;;
71298;SDS011;59083;47.974;21.722;2023-02-20T01:12:22;9.60;;;3.50;;
71298;SDS011;59083;47.974;21.722;2023-02-20T01:15:23;10.43;;;3.30;;
71298;SDS011;59083;47.974;21.722;2023-02-20T01:18:25;8.97;;;3.57;;
71298;SDS011;59083;47.974;21.722;2023-02-20T01:21:26;10.13;;;3.77;;
71298;SDS011;59083;47.974;21.722;2023-02-20T01:24:27;12.20;;;3.60;;
71298;SDS011;59083;47.974;21.722;2023-02-20T01:27:28;8.93;;;3.80;;
71298;SDS011;59083;47.974;21.722;2023-02-20T01:30:30;11.48;;;3.37;;
71298;SDS011;59083;47.974;21.722;2023-02-20T01:33:31;9.63;;;4.00;;
71298;SDS011;59083;47.974;21.722;2023-02-20T01:36:32;8.87;;;3.20;;
71298;SDS011;59083;47.974;21.722;2023-02-20T01:39:36;9.52;;;3.80;;
71298;SDS011;59083;47.974;21.722;2023-02-20T01:42:37;10.43;;;3.42;;
71298;SDS011;59083;47.974;21.722;2023-02-20T01:45:38;9.30;;;3.40;;
71298;SDS011;59083;47.974;21.722;2023-02-20T01:48:40;7.63;;;2.83;;
71298;SDS011;59083;47.974;21.722;2023-02-20T01:51:43;7.27;;;3.07;;
71298;SDS011;59083;47.974;21.722;2023-02-20T01:54:51;8.10;;;3.25;;
71298;SDS011;59083;47.974;21.722;2023-02-20T02:01:34;11.30;;;3.35;;
71298;SDS011;59083;47.974;21.722;2023-02-20T02:04:36;7.63;;;3.10;;
71298;SDS011;59083;47.974;21.722;2023-02-20T02:07:39;8.40;;;3.10;;
71298;SDS011;59083;47.974;21.722;2023-02-20T02:11:00;7.85;;;3.35;;
71298;SDS011;59083;47.974;21.722;2023-02-20T02:14:07;8.73;;;3.55;;
71298;SDS011;59083;47.974;21.722;2023-02-20T02:40:46;11.27;;;3.53;;
71298;SDS011;59083;47.974;21.722;2023-02-20T02:43:59;8.88;;;3.65;;
71298;SDS011;59083;47.974;21.722;2023-02-20T02:47:05;11.10;;;3.40;;
71298;SDS011;59083;47.974;21.722;2023-02-20T02:50:26;11.25;;;3.97;;
71298;SDS011;59083;47.974;21.722;2023-02-20T02:53:32;8.57;;;2.87;;
71298;SDS011;59083;47.974;21.722;2023-02-20T02:56:34;7.67;;;3.37;;
71298;SDS011;59083;47.974;21.722;2023-02-20T02:59:41;8.68;;;3.17;;
71298;SDS011;59083;47.974;21.722;2023-02-20T03:06:02;7.93;;;3.03;;
71298;SDS011;59083;47.974;21.722;2023-02-20T03:09:10;7.17;;;3.20;;
71298;SDS011;59083;47.974;21.722;2023-02-20T03:12:16;8.07;;;3.30;;
71298;SDS011;59083;47.974;21.722;2023-02-20T03:15:28;7.90;;;3.53;;
71298;SDS011;59083;47.974;21.722;2023-02-20T03:18:36;10.10;;;3.50;;
71298;SDS011;59083;47.974;21.722;2023-02-20T03:21:42;9.02;;;3.37;;
71298;SDS011;59083;47.974;21.722;2023-02-20T03:24:45;6.43;;;2.93;;
71298;SDS011;59083;47.974;21.722;2023-02-20T03:27:58;9.13;;;2.80;;
71298;SDS011;59083;47.974;21.722;2023-02-20T03:31:03;8.70;;;3.25;;
71298;SDS011;59083;47.974;21.722;2023-02-20T03:34:13;9.10;;;3.10;;
71298;SDS011;59083;47.974;21.722;2023-02-20T03:37:42;11.55;;;3.33;;
71298;SDS011;59083;47.974;21.722;2023-02-20T03:41:04;10.57;;;3.23;;
71298;SDS011;59083;47.974;21.722;2023-02-20T03:44:25;10.97;;;3.30;;
71298;SDS011;59083;47.974;21.722;2023-02-20T03:47:28;9.00;;;3.20;;
71298;SDS011;59083;47.974;21.722;2023-02-20T03:50:31;7.82;;;3.12;;
71298;SDS011;59083;47.974;21.722;2023-02-20T03:53:52;8.60;;;3.30;;
71298;SDS011;59083;47.974;21.722;2023-02-20T03:56:58;6.83;;;3.13;;
71298;SDS011;59083;47.974;21.722;2023-02-20T04:00:06;9.33;;;3.27;;
71298;SDS011;59083;47.974;21.722;2023-02-20T04:03:16;10.57;;;3.22;;
71298;SDS011;59083;47.974;21.722;2023-02-20T04:06:22;8.88;;;3.72;;
71298;SDS011;59083;47.974;21.722;2023-02-20T04:09:28;7.90;;;3.03;;
71298;SDS011;59083;47.974;21.722;2023-02-20T04:12:34;10.53;;;3.27;;
71298;SDS011;59083;47.974;21.722;2023-02-20T04:15:40;6.80;;;2.93;;
71298;SDS011;59083;47.974;21.722;2023-02-20T04:18:44;23.90;;;8.93;;
71298;SDS011;59083;47.974;21.722;2023-02-20T04:21:47;10.27;;;3.55;;
71298;SDS011;59083;47.974;21.722;2023-02-20T04:25:05;8.15;;;2.75;;
71298;SDS011;59083;47.974;21.722;2023-02-20T04:28:16;9.20;;;3.10;;
71298;SDS011;59083;47.974;21.722;2023-02-20T04:31:18;10.07;;;3.50;;
71298;SDS011;59083;47.974;21.722;2023-02-20T04:34:21;8.77;;;3.45;;
71298;SDS011;59083;47.974;21.722;2023-02-20T04:37:23;7.78;;;3.70;;
71298;SDS011;59083;47.974;21.722;2023-02-20T04:40:25;10.95;;;3.20;;
71298;SDS011;59083;47.974;21.722;2023-02-20T04:43:26;8.37;;;3.20;;
71298;SDS011;59083;47.974;21.722;2023-02-20T04:46:28;8.10;;;3.37;;
71298;SDS011;59083;47.974;21.722;2023-02-20T04:49:30;7.43;;;3.00;;
71298;SDS011;59083;47.974;21.722;2023-02-20T04:52:32;8.43;;;3.08;;
71298;SDS011;59083;47.974;21.722;2023-02-20T04:55:34;7.40;;;3.00;;
71298;SDS011;59083;47.974;21.722;2023-02-20T04:58:36;9.90;;;3.83;;
71298;SDS011;59083;47.974;21.722;2023-02-20T05:01:38;9.77;;;4.27;;
71298;SDS011;59083;47.974;21.722;2023-02-20T05:04:39;7.68;;;3.90;;
71298;SDS011;59083;47.974;21.722;2023-02-20T05:07:41;8.88;;;3.53;;
71298;SDS011;59083;47.974;21.722;2023-02-20T05:10:42;8.95;;;4.05;;
71298;SDS011;59083;47.974;21.722;2023-02-20T05:13:43;12.07;;;3.77;;
71298;SDS011;59083;47.974;21.722;2023-02-20T05:16:44;8.43;;;4.23;;
71298;SDS011;59083;47.974;21.722;2023-02-20T05:19:47;9.43;;;4.05;;
71298;SDS011;59083;47.974;21.722;2023-02-20T05:22:48;9.20;;;3.70;;
71298;SDS011;59083;47.974;21.722;2023-02-20T05:25:49;12.82;;;4.68;;
71298;SDS011;59083;47.974;21.722;2023-02-20T05:28:51;9.73;;;4.13;;
71298;SDS011;59083;47.974;21.722;2023-02-20T05:31:52;13.03;;;4.97;;
71298;SDS011;59083;47.974;21.722;2023-02-20T05:34:53;11.90;;;4.43;;
71298;SDS011;59083;47.974;21.722;2023-02-20T05:37:55;10.93;;;4.47;;
71298;SDS011;59083;47.974;21.722;2023-02-20T05:40:56;10.18;;;3.97;;
71298;SDS011;59083;47.974;21.722;2023-02-20T05:43:58;11.37;;;5.00;;
71298;SDS011;59083;47.974;21.722;2023-02-20T05:46:59;10.33;;;4.40;;
71298;SDS011;59083;47.974;21.722;2023-02-20T05:50:01;9.50;;;4.43;;
71298;SDS011;59083;47.974;21.722;2023-02-20T05:53:03;11.05;;;4.25;;
71298;SDS011;59083;47.974;21.722;2023-02-20T05:56:04;12.93;;;4.70;;
71298;SDS011;59083;47.974;21.722;2023-02-20T05:59:05;10.90;;;4.40;;
71298;SDS011;59083;47.974;21.722;2023-02-20T06:02:07;12.93;;;5.73;;
71298;SDS011;59083;47.974;21.722;2023-02-20T06:05:08;10.55;;;5.32;;
71298;SDS011;59083;47.974;21.722;2023-02-20T06:08:09;13.02;;;4.93;;
71298;SDS011;59083;47.974;21.722;2023-02-20T06:11:11;12.18;;;5.07;;
71298;SDS011;59083;47.974;21.722;2023-02-20T06:14:14;11.00;;;5.10;;
71298;SDS011;59083;47.974;21.722;2023-02-20T06:17:18;10.63;;;4.60;;
71298;SDS011;59083;47.974;21.722;2023-02-20T06:20:21;15.82;;;4.78;;
71298;SDS011;59083;47.974;21.722;2023-02-20T06:23:22;11.60;;;4.75;;
71298;SDS011;59083;47.974;21.722;2023-02-20T06:26:24;10.45;;;5.25;;
71298;SDS011;59083;47.974;21.722;2023-02-20T06:29:26;12.73;;;5.03;;
71298;SDS011;59083;47.974;21.722;2023-02-20T06:32:28;12.17;;;4.73;;
71298;SDS011;59083;47.974;21.722;2023-02-20T06:35:30;12.45;;;4.70;;
71298;SDS011;59083;47.974;21.722;2023-02-20T06:38:31;11.85;;;4.70;;
71298;SDS011;59083;47.974;21.722;2023-02-20T06:41:32;10.73;;;5.28;;
71298;SDS011;59083;47.974;21.722;2023-02-20T06:44:33;12.13;;;4.93;;
71298;SDS011;59083;47.974;21.722;2023-02-20T06:47:34;12.47;;;4.90;;
71298;SDS011;59083;47.974;21.722;2023-02-20T06:50:35;11.60;;;5.10;;
71298;SDS011;59083;47.974;21.722;2023-02-20T06:53:37;10.98;;;4.82;;
71298;SDS011;59083;47.974;21.722;2023-02-20T06:56:38;10.15;;;4.37;;
71298;SDS011;59083;47.974;21.722;2023-02-20T06:59:39;12.50;;;4.67;;
71298;SDS011;59083;47.974;21.722;2023-02-20T07:02:42;10.53;;;4.80;;
71298;SDS011;59083;47.974;21.722;2023-02-20T07:05:43;13.88;;;5.50;;
71298;SDS011;59083;47.974;21.722;2023-02-20T07:08:44;14.35;;;5.40;;
71298;SDS011;59083;47.974;21.722;2023-02-20T07:11:46;12.25;;;5.72;;
71298;SDS011;59083;47.974;21.722;2023-02-20T07:14:50;11.60;;;5.60;;
71298;SDS011;59083;47.974;21.722;2023-02-20T07:17:51;15.90;;;6.07;;
71298;SDS011;59083;47.974;21.722;2023-02-20T07:20:53;11.77;;;5.70;;
71298;SDS011;59083;47.974;21.722;2023-02-20T07:23:55;17.55;;;6.22;;
71298;SDS011;59083;47.974;21.722;2023-02-20T07:26:56;12.77;;;5.82;;
71298;SDS011;59083;47.974;21.722;2023-02-20T07:29:57;11.43;;;5.67;;
71298;SDS011;59083;47.974;21.722;2023-02-20T07:32:58;12.77;;;6.03;;
71298;SDS011;59083;47.974;21.722;2023-02-20T07:36:00;14.20;;;5.93;;
71298;SDS011;59083;47.974;21.722;2023-02-20T07:39:02;12.40;;;5.97;;
71298;SDS011;59083;47.974;21.722;2023-02-20T07:42:06;12.95;;;5.32;;
71298;SDS011;59083;47.974;21.722;2023-02-20T07:45:10;10.90;;;5.37;;
71298;SDS011;59083;47.974;21.722;2023-02-20T07:48:11;11.13;;;5.47;;
71298;SDS011;59083;47.974;21.722;2023-02-20T07:51:12;10.07;;;4.60;;
71298;SDS011;59083;47.974;21.722;2023-02-20T07:54:14;11.20;;;5.00;;
71298;SDS011;59083;47.974;21.722;2023-02-20T07:57:15;9.23;;;4.75;;
71298;SDS011;59083;47.974;21.722;2023-02-20T08:00:17;11.47;;;3.90;;
71298;SDS011;59083;47.974;21.722;2023-02-20T08:03:19;12.07;;;5.63;;
71298;SDS011;59083;47.974;21.722;2023-02-20T08:06:20;11.75;;;4.20;;
71298;SDS011;59083;47.974;21.722;2023-02-20T08:09:22;8.80;;;3.58;;
71298;SDS011;59083;47.974;21.722;2023-02-20T08:12:23;7.32;;;3.65;;
71298;SDS011;59083;47.974;21.722;2023-02-20T08:15:24;8.07;;;3.70;;
71298;SDS011;59083;47.974;21.722;2023-02-20T08:18:26;7.87;;;3.40;;
71298;SDS011;59083;47.974;21.722;2023-02-20T08:21:27;7.97;;;3.42;;
71298;SDS011;59083;47.974;21.722;2023-02-20T08:24:28;6.37;;;2.80;;
71298;SDS011;59083;47.974;21.722;2023-02-20T08:27:30;8.68;;;3.53;;
71298;SDS011;59083;47.974;21.722;2023-02-20T08:30:32;11.40;;;4.77;;
71298;SDS011;59083;47.974;21.722;2023-02-20T08:33:33;7.53;;;3.20;;
71298;SDS011;59083;47.974;21.722;2023-02-20T08:36:34;6.30;;;2.85;;
71298;SDS011;59083;47.974;21.722;2023-02-20T08:39:36;6.47;;;2.85;;
71298;SDS011;59083;47.974;21.722;2023-02-20T08:42:37;8.27;;;2.37;;
71298;SDS011;59083;47.974;21.722;2023-02-20T08:45:38;7.07;;;2.17;;
71298;SDS011;59083;47.974;21.722;2023-02-20T08:48:40;5.50;;;2.20;;
71298;SDS011;59083;47.974;21.722;2023-02-20T08:51:41;6.22;;;2.50;;
71298;SDS011;59083;47.974;21.722;2023-02-20T08:54:46;6.53;;;2.40;;
71298;SDS011;59083;47.974;21.722;2023-02-20T08:57:48;7.03;;;2.60;;
71298;SDS011;59083;47.974;21.722;2023-02-20T09:00:49;7.50;;;2.50;;
71298;SDS011;59083;47.974;21.722;2023-02-20T09:03:51;9.13;;;2.80;;
71298;SDS011;59083;47.974;21.722;2023-02-20T09:06:52;6.57;;;2.45;;
71298;SDS011;59083;47.974;21.722;2023-02-20T09:09:53;5.95;;;2.40;;
71298;SDS011;59083;47.974;21.722;2023-02-20T09:12:55;8.75;;;3.08;;
71298;SDS011;59083;47.974;21.722;2023-02-20T09:15:57;6.23;;;2.77;;
71298;SDS011;59083;47.974;21.722;2023-02-20T09:18:58;8.33;;;3.00;;
71298;SDS011;59083;47.974;21.722;2023-02-20T09:22:00;6.22;;;2.30;;
71298;SDS011;59083;47.974;21.722;2023-02-20T09:25:02;9.40;;;2.40;;
71298;SDS011;59083;47.974;21.722;2023-02-20T09:28:05;6.15;;;2.20;;
71298;SDS011;59083;47.974;21.722;2023-02-20T09:31:06;6.73;;;2.30;;
71298;SDS011;59083;47.974;21.722;2023-02-20T09:34:07;7.30;;;2.77;;
71298;SDS011;59083;47.974;21.722;2023-02-20T09:37:09;6.68;;;2.70;;
71298;SDS011;59083;47.974;21.722;2023-02-20T09:40:11;8.18;;;2.80;;
71298;SDS011;59083;47.974;21.722;2023-02-20T09:43:23;8.38;;;2.90;;
71298;SDS011;59083;47.974;21.722;2023-02-20T09:46:32;5.97;;;2.87;;
71298;SDS011;59083;47.974;21.722;2023-02-20T09:49:34;7.50;;;3.03;;
71298;SDS011;59083;47.974;21.722;2023-02-20T09:52:37;7.05;;;3.10;;
71298;SDS011;59083;47.974;21.722;2023-02-20T09:55:42;7.95;;;2.80;;
71298;SDS011;59083;47.974;21.722;2023-02-20T10:05:27;6.60;;;3.13;;
71298;SDS011;59083;47.974;21.722;2023-02-20T10:08:29;8.05;;;3.05;;
71298;SDS011;59083;47.974;21.722;2023-02-20T10:14:51;6.50;;;2.80;;
71298;SDS011;59083;47.974;21.722;2023-02-20T10:28:38;9.73;;;3.20;;
71298;SDS011;59083;47.974;21.722;2023-02-20T10:31:40;10.02;;;3.65;;
71298;SDS011;59083;47.974;21.722;2023-02-20T10:34:56;7.90;;;3.27;;
71298;SDS011;59083;47.974;21.722;2023-02-20T10:38:04;6.87;;;3.10;;
71298;SDS011;59083;47.974;21.722;2023-02-20T10:47:35;8.70;;;3.03;;
71298;SDS011;59083;47.974;21.722;2023-02-20T10:50:46;7.13;;;2.90;;
71298;SDS011;59083;47.974;21.722;2023-02-20T10:53:57;11.70;;;3.30;;
71298;SDS011;59083;47.974;21.722;2023-02-20T10:57:15;6.43;;;2.75;;
71298;SDS011;59083;47.974;21.722;2023-02-20T11:00:28;8.02;;;3.40;;
71298;SDS011;59083;47.974;21.722;2023-02-20T11:03:36;8.70;;;3.58;;
71298;SDS011;59083;47.974;21.722;2023-02-20T11:06:45;6.83;;;2.67;;
71298;SDS011;59083;47.974;21.722;2023-02-20T11:09:50;9.37;;;3.20;;
71298;SDS011;59083;47.974;21.722;2023-02-20T11:12:52;7.07;;;2.62;;
71298;SDS011;59083;47.974;21.722;2023-02-20T11:15:59;6.90;;;2.58;;
71298;SDS011;59083;47.974;21.722;2023-02-20T11:19:01;8.30;;;2.83;;
71298;SDS011;59083;47.974;21.722;2023-02-20T11:22:07;7.60;;;3.20;;
71298;SDS011;59083;47.974;21.722;2023-02-20T11:31:27;8.35;;;3.20;;
71298;SDS011;59083;47.974;21.722;2023-02-20T11:34:28;7.90;;;2.95;;
71298;SDS011;59083;47.974;21.722;2023-02-20T11:37:31;7.93;;;3.57;;
71298;SDS011;59083;47.974;21.722;2023-02-20T11:40:32;7.10;;;2.70;;
71298;SDS011;59083;47.974;21.722;2023-02-20T11:46:37;9.23;;;3.00;;
71298;SDS011;59083;47.974;21.722;2023-02-20T11:49:39;11.88;;;3.70;;
71298;SDS011;59083;47.974;21.722;2023-02-20T11:53:00;8.43;;;3.33;;
71298;SDS011;59083;47.974;21.722;2023-02-20T12:02:25;6.18;;;3.00;;
71298;SDS011;59083;47.974;21.722;2023-02-20T12:05:38;13.57;;;3.70;;
71298;SDS011;59083;47.974;21.722;2023-02-20T12:08:46;10.10;;;3.57;;
71298;SDS011;59083;47.974;21.722;2023-02-20T12:11:54;7.97;;;3.53;;
71298;SDS011;59083;47.974;21.722;2023-02-20T12:14:57;12.25;;;3.70;;
71298;SDS011;59083;47.974;21.722;2023-02-20T12:18:11;8.63;;;4.10;;
71298;SDS011;59083;47.974;21.722;2023-02-20T12:21:20;8.57;;;3.53;;
71298;SDS011;59083;47.974;21.722;2023-02-20T12:34:49;7.22;;;3.72;;
71298;SDS011;59083;47.974;21.722;2023-02-20T12:37:58;9.27;;;3.33;;
71298;SDS011;59083;47.974;21.722;2023-02-20T12:41:25;10.23;;;3.57;;
71298;SDS011;59083;47.974;21.722;2023-02-20T12:51:28;12.00;;;4.68;;
71298;SDS011;59083;47.974;21.722;2023-02-20T12:54:35;7.35;;;3.37;;
71298;SDS011;59083;47.974;21.722;2023-02-20T13:01:14;9.70;;;4.10;;
71298;SDS011;59083;47.974;21.722;2023-02-20T13:04:24;8.20;;;3.90;;
71298;SDS011;59083;47.974;21.722;2023-02-20T13:07:33;8.88;;;4.12;;
71298;SDS011;59083;47.974;21.722;2023-02-20T13:10:56;9.82;;;3.55;;
71298;SDS011;59083;47.974;21.722;2023-02-20T13:17:23;8.37;;;3.47;;
71298;SDS011;59083;47.974;21.722;2023-02-20T13:20:31;7.43;;;3.40;;
71298;SDS011;59083;47.974;21.722;2023-02-20T13:23:38;10.00;;;3.10;;
71298;SDS011;59083;47.974;21.722;2023-02-20T13:29:57;7.00;;;3.10;;
71298;SDS011;59083;47.974;21.722;2023-02-20T13:33:10;8.13;;;3.53;;
71298;SDS011;59083;47.974;21.722;2023-02-20T13:36:38;6.62;;;3.35;;
71298;SDS011;59083;47.974;21.722;2023-02-20T13:39:41;9.15;;;3.60;;
71298;SDS011;59083;47.974;21.722;2023-02-20T13:42:42;8.77;;;3.37;;
71298;SDS011;59083;47.974;21.722;2023-02-20T13:45:44;7.50;;;3.43;;
71298;SDS011;59083;47.974;21.722;2023-02-20T13:48:47;8.73;;;3.70;;
71298;SDS011;59083;47.974;21.722;2023-02-20T13:51:49;9.27;;;3.53;;
71298;SDS011;59083;47.974;21.722;2023-02-20T13:54:51;8.15;;;3.42;;
71298;SDS011;59083;47.974;21.722;2023-02-20T13:57:56;10.07;;;4.60;;
71298;SDS011;59083;47.974;21.722;2023-02-20T14:01:04;9.37;;;4.00;;
71298;SDS011;59083;47.974;21.722;2023-02-20T14:04:05;8.07;;;3.33;;
71298;SDS011;59083;47.974;21.722;2023-02-20T14:07:06;7.53;;;3.75;;
71298;SDS011;59083;47.974;21.722;2023-02-20T14:10:19;7.55;;;3.60;;
71298;SDS011;59083;47.974;21.722;2023-02-20T14:13:26;10.90;;;4.12;;
71298;SDS011;59083;47.974;21.722;2023-02-20T14:16:32;8.03;;;3.53;;
71298;SDS011;59083;47.974;21.722;2023-02-20T14:19:37;9.00;;;4.67;;
71298;SDS011;59083;47.974;21.722;2023-02-20T14:22:43;9.05;;;4.07;;
71298;SDS011;59083;47.974;21.722;2023-02-20T14:25:58;8.65;;;4.03;;
71298;SDS011;59083;47.974;21.722;2023-02-20T14:29:03;9.20;;;4.05;;
71298;SDS011;59083;47.974;21.722;2023-02-20T14:32:20;10.13;;;4.30;;
71298;SDS011;59083;47.974;21.722;2023-02-20T14:38:45;9.65;;;3.97;;
71298;SDS011;59083;47.974;21.722;2023-02-20T14:41:49;8.52;;;3.60;;
71298;SDS011;59083;47.974;21.722;2023-02-20T14:45:00;8.35;;;3.92;;
71298;SDS011;59083;47.974;21.722;2023-02-20T14:48:16;9.40;;;5.00;;
71298;SDS011;59083;47.974;21.722;2023-02-20T14:51:23;9.77;;;4.37;;
71298;SDS011;59083;47.974;21.722;2023-02-20T14:54:25;11.90;;;4.85;;
71298;SDS011;59083;47.974;21.722;2023-02-20T14:57:30;10.25;;;4.60;;
71298;SDS011;59083;47.974;21.722;2023-02-20T15:00:32;10.18;;;5.30;;
71298;SDS011;59083;47.974;21.722;2023-02-20T15:03:35;12.10;;;5.30;;
71298;SDS011;59083;47.974;21.722;2023-02-20T15:06:37;11.00;;;5.07;;
71298;SDS011;59083;47.974;21.722;2023-02-20T15:09:43;10.40;;;4.68;;
71298;SDS011;59083;47.974;21.722;2023-02-20T15:12:46;9.68;;;4.70;;
71298;SDS011;59083;47.974;21.722;2023-02-20T15:15:49;9.13;;;4.62;;
71298;SDS011;59083;47.974;21.722;2023-02-20T15:18:53;9.47;;;4.60;;
71298;SDS011;59083;47.974;21.722;2023-02-20T15:21:56;8.77;;;4.60;;
71298;SDS011;59083;47.974;21.722;2023-02-20T15:31:21;10.23;;;4.87;;
71298;SDS011;59083;47.974;21.722;2023-02-20T15:34:35;9.93;;;5.03;;
71298;SDS011;59083;47.974;21.722;2023-02-20T15:37:37;12.10;;;5.00;;
71298;SDS011;59083;47.974;21.722;2023-02-20T15:40:39;13.18;;;6.10;;
71298;SDS011;59083;47.974;21.722;2023-02-20T15:43:41;11.48;;;5.62;;
71298;SDS011;59083;47.974;21.722;2023-02-20T15:46:42;13.73;;;7.22;;
71298;SDS011;59083;47.974;21.722;2023-02-20T15:49:43;12.40;;;6.43;;
71298;SDS011;59083;47.974;21.722;2023-02-20T15:52:44;12.57;;;5.47;;
71298;SDS011;59083;47.974;21.722;2023-02-20T15:55:47;11.77;;;4.87;;
71298;SDS011;59083;47.974;21.722;2023-02-20T15:58:51;11.15;;;5.60;;
71298;SDS011;59083;47.974;21.722;2023-02-20T16:01:52;14.10;;;6.47;;
71298;SDS011;59083;47.974;21.722;2023-02-20T16:04:53;9.47;;;5.13;;
71298;SDS011;59083;47.974;21.722;2023-02-20T16:07:54;10.63;;;5.63;;
71298;SDS011;59083;47.974;21.722;2023-02-20T16:10:56;11.02;;;5.70;;
71298;SDS011;59083;47.974;21.722;2023-02-20T16:13:58;12.23;;;5.12;;
71298;SDS011;59083;47.974;21.722;2023-02-20T16:17:01;11.15;;;5.57;;
71298;SDS011;59083;47.974;21.722;2023-02-20T16:20:08;15.67;;;6.33;;
71298;SDS011;59083;47.974;21.722;2023-02-20T16:23:15;15.87;;;7.33;;
71298;SDS011;59083;47.974;21.722;2023-02-20T16:26:16;15.35;;;6.75;;
71298;SDS011;59083;47.974;21.722;2023-02-20T16:29:32;12.30;;;5.93;;
71298;SDS011;59083;47.974;21.722;2023-02-20T16:32:36;13.27;;;5.90;;
71298;SDS011;59083;47.974;21.722;2023-02-20T16:35:37;12.37;;;5.50;;
71298;SDS011;59083;47.974;21.722;2023-02-20T16:38:38;11.77;;;5.53;;
71298;SDS011;59083;47.974;21.722;2023-02-20T16:41:40;13.10;;;6.37;;
71298;SDS011;59083;47.974;21.722;2023-02-20T16:44:43;12.20;;;6.20;;
71298;SDS011;59083;47.974;21.722;2023-02-20T16:47:50;12.20;;;5.60;;
71298;SDS011;59083;47.974;21.722;2023-02-20T16:50:53;14.03;;;5.43;;
71298;SDS011;59083;47.974;21.722;2023-02-20T16:53:54;13.10;;;6.47;;
71298;SDS011;59083;47.974;21.722;2023-02-20T16:56:55;12.63;;;6.28;;
71298;SDS011;59083;47.974;21.722;2023-02-20T16:59:57;11.95;;;5.90;;
71298;SDS011;59083;47.974;21.722;2023-02-20T17:02:59;15.45;;;6.18;;
71298;SDS011;59083;47.974;21.722;2023-02-20T17:06:01;12.73;;;5.83;;
71298;SDS011;59083;47.974;21.722;2023-02-20T17:09:02;17.93;;;6.03;;
71298;SDS011;59083;47.974;21.722;2023-02-20T17:12:03;13.25;;;6.47;;
71298;SDS011;59083;47.974;21.722;2023-02-20T17:15:05;14.13;;;6.30;;
71298;SDS011;59083;47.974;21.722;2023-02-20T17:18:08;13.20;;;5.70;;
71298;SDS011;59083;47.974;21.722;2023-02-20T17:21:09;16.10;;;6.40;;
71298;SDS011;59083;47.974;21.722;2023-02-20T17:24:10;17.10;;;7.57;;
71298;SDS011;59083;47.974;21.722;2023-02-20T17:27:12;15.45;;;6.80;;
71298;SDS011;59083;47.974;21.722;2023-02-20T17:30:14;15.13;;;5.82;;
71298;SDS011;59083;47.974;21.722;2023-02-20T17:33:17;17.30;;;7.72;;
71298;SDS011;59083;47.974;21.722;2023-02-20T17:36:18;14.57;;;6.80;;
71298;SDS011;59083;47.974;21.722;2023-02-20T17:39:20;14.23;;;6.53;;
71298;SDS011;59083;47.974;21.722;2023-02-20T17:42:23;16.85;;;6.53;;
71298;SDS011;59083;47.974;21.722;2023-02-20T17:45:24;12.02;;;6.45;;
71298;SDS011;59083;47.974;21.722;2023-02-20T17:48:26;14.85;;;6.35;;
71298;SDS011;59083;47.974;21.722;2023-02-20T17:51:27;15.97;;;6.37;;
71298;SDS011;59083;47.974;21.722;2023-02-20T17:54:29;17.07;;;6.60;;
71298;SDS011;59083;47.974;21.722;2023-02-20T17:57:33;14.05;;;6.37;;
71298;SDS011;59083;47.974;21.722;2023-02-20T18:00:34;13.73;;;6.68;;
71298;SDS011;59083;47.974;21.722;2023-02-20T18:03:36;15.48;;;7.50;;
71298;SDS011;59083;47.974;21.722;2023-02-20T18:06:38;12.23;;;6.00;;
71298;SDS011;59083;47.974;21.722;2023-02-20T18:09:39;13.73;;;6.00;;
71298;SDS011;59083;47.974;21.722;2023-02-20T18:12:40;13.23;;;6.07;;
71298;SDS011;59083;47.974;21.722;2023-02-20T18:15:43;14.30;;;6.20;;
71298;SDS011;59083;47.974;21.722;2023-02-20T18:18:44;17.65;;;6.70;;
71298;SDS011;59083;47.974;21.722;2023-02-20T18:21:46;15.53;;;5.90;;
71298;SDS011;59083;47.974;21.722;2023-02-20T18:24:51;14.77;;;6.53;;
71298;SDS011;59083;47.974;21.722;2023-02-20T18:27:52;13.95;;;6.18;;
71298;SDS011;59083;47.974;21.722;2023-02-20T18:30:54;12.68;;;6.28;;
71298;SDS011;59083;47.974;21.722;2023-02-20T18:33:55;14.27;;;6.25;;
71298;SDS011;59083;47.974;21.722;2023-02-20T18:36:56;14.70;;;6.03;;
71298;SDS011;59083;47.974;21.722;2023-02-20T18:39:58;11.63;;;5.50;;
71298;SDS011;59083;47.974;21.722;2023-02-20T18:42:59;11.02;;;6.00;;
71298;SDS011;59083;47.974;21.722;2023-02-20T18:46:00;12.50;;;5.90;;
71298;SDS011;59083;47.974;21.722;2023-02-20T18:49:02;11.30;;;5.85;;
71298;SDS011;59083;47.974;21.722;2023-02-20T18:52:04;12.77;;;5.77;;
71298;SDS011;59083;47.974;21.722;2023-02-20T18:55:05;14.07;;;5.80;;
71298;SDS011;59083;47.974;21.722;2023-02-20T18:58:07;12.95;;;5.53;;
71298;SDS011;59083;47.974;21.722;2023-02-20T19:01:08;13.57;;;6.22;;
71298;SDS011;59083;47.974;21.722;2023-02-20T19:04:12;15.15;;;6.30;;
71298;SDS011;59083;47.974;21.722;2023-02-20T19:07:14;11.50;;;5.93;;
71298;SDS011;59083;47.974;21.722;2023-02-20T19:10:18;14.73;;;6.13;;
71298;SDS011;59083;47.974;21.722;2023-02-20T19:13:21;14.40;;;6.32;;
71298;SDS011;59083;47.974;21.722;2023-02-20T19:16:23;13.40;;;6.55;;
71298;SDS011;59083;47.974;21.722;2023-02-20T19:19:25;12.88;;;6.12;;
71298;SDS011;59083;47.974;21.722;2023-02-20T19:22:28;15.30;;;6.80;;
71298;SDS011;59083;47.974;21.722;2023-02-20T19:25:29;14.33;;;6.40;;
71298;SDS011;59083;47.974;21.722;2023-02-20T19:28:31;13.05;;;6.25;;
71298;SDS011;59083;47.974;21.722;2023-02-20T19:31:33;12.32;;;6.00;;
71298;SDS011;59083;47.974;21.722;2023-02-20T19:34:34;11.63;;;5.60;;
71298;SDS011;59083;47.974;21.722;2023-02-20T19:37:35;11.57;;;5.43;;
71298;SDS011;59083;47.974;21.722;2023-02-20T19:40:38;12.50;;;5.50;;
71298;SDS011;59083;47.974;21.722;2023-02-20T19:43:40;12.30;;;5.68;;
71298;SDS011;59083;47.974;21.722;2023-02-20T19:46:42;12.63;;;5.50;;
71298;SDS011;59083;47.974;21.722;2023-02-20T19:49:44;12.57;;;5.82;;
71298;SDS011;59083;47.974;21.722;2023-02-20T19:52:46;9.93;;;4.80;;
71298;SDS011;59083;47.974;21.722;2023-02-20T19:55:47;13.03;;;5.70;;